createdAt,value
2018-09-27T00:01:43.927Z,1.80
2018-09-27T00:04:11.625Z,1.80
2018-09-27T00:06:39.221Z,1.90
2018-09-27T00:09:07.396Z,1.87
2018-09-27T00:11:34.999Z,1.90
2018-09-27T00:14:02.571Z,2.10
2018-09-27T00:16:30.183Z,1.80
2018-09-27T00:18:57.796Z,1.67
2018-09-27T00:21:25.441Z,1.67
2018-09-27T00:23:53.027Z,1.67
2018-09-27T00:26:20.637Z,1.70
2018-09-27T00:28:48.216Z,1.90
2018-09-27T00:31:15.829Z,1.80
2018-09-27T00:33:43.420Z,1.70
2018-09-27T00:36:10.984Z,1.70
2018-09-27T00:38:38.623Z,1.90
2018-09-27T00:41:06.205Z,1.50
2018-09-27T00:43:33.808Z,1.67
2018-09-27T00:46:01.427Z,1.80
2018-09-27T00:48:29.009Z,1.80
2018-09-27T00:50:56.564Z,2.20
2018-09-27T00:53:24.131Z,2.20
2018-09-27T00:55:51.725Z,2.00
2018-09-27T00:58:19.288Z,2.00
2018-09-27T01:00:46.920Z,1.83
2018-09-27T01:03:14.487Z,1.80
2018-09-27T01:05:42.151Z,1.90
2018-09-27T01:08:09.840Z,1.80
2018-09-27T01:10:37.668Z,1.90
2018-09-27T01:13:05.375Z,2.20
2018-09-27T01:15:32.980Z,2.00
2018-09-27T01:18:00.572Z,2.00
2018-09-27T01:20:28.141Z,1.80
2018-09-27T01:22:55.717Z,2.10
2018-09-27T01:25:23.287Z,2.20
2018-09-27T01:27:50.897Z,2.20
2018-09-27T01:30:18.476Z,2.00
2018-09-27T01:32:46.093Z,2.00
2018-09-27T01:35:13.788Z,2.07
2018-09-27T01:37:41.355Z,1.73
2018-09-27T01:40:08.963Z,1.80
2018-09-27T01:42:36.652Z,1.80
2018-09-27T01:45:04.597Z,2.17
2018-09-27T01:47:32.226Z,1.70
2018-09-27T01:49:59.833Z,1.73
2018-09-27T01:52:27.449Z,2.60
2018-09-27T01:54:55.448Z,2.20
2018-09-27T01:57:23.084Z,2.17
2018-09-27T01:59:50.696Z,2.20
2018-09-27T02:02:18.276Z,2.27
2018-09-27T02:04:46.200Z,2.37
2018-09-27T02:07:13.816Z,2.10
2018-09-27T02:09:41.432Z,2.00
2018-09-27T02:12:09.012Z,1.80
2018-09-27T02:14:36.662Z,2.03
2018-09-27T02:17:04.274Z,2.30
2018-09-27T02:19:31.830Z,2.30
2018-09-27T02:21:59.402Z,2.00
2018-09-27T02:24:27.008Z,1.97
2018-09-27T02:26:54.592Z,2.20
2018-09-27T02:29:22.190Z,2.00
2018-09-27T02:31:49.752Z,2.33
2018-09-27T02:34:17.356Z,2.30
2018-09-27T02:36:44.975Z,2.47
2018-09-27T02:39:12.564Z,2.10
2018-09-27T02:41:40.316Z,1.97
2018-09-27T02:44:07.924Z,1.93
2018-09-27T02:46:35.509Z,2.13
2018-09-27T02:49:03.128Z,1.80
2018-09-27T02:51:30.735Z,1.70
2018-09-27T02:53:58.341Z,1.60
2018-09-27T02:56:26.087Z,1.80
2018-09-27T02:58:53.666Z,2.20
2018-09-27T03:01:21.581Z,2.17
2018-09-27T03:03:49.140Z,1.90
2018-09-27T03:06:16.710Z,2.00
2018-09-27T03:08:44.686Z,1.90
2018-09-27T03:11:12.224Z,1.60
2018-09-27T03:13:39.797Z,2.10
2018-09-27T03:16:07.384Z,1.90
2018-09-27T03:18:34.993Z,1.80
2018-09-27T03:21:02.650Z,2.60
2018-09-27T03:23:30.243Z,3.00
2018-09-27T03:25:57.812Z,2.40
2018-09-27T03:28:25.927Z,2.60
2018-09-27T03:30:53.535Z,2.20
2018-09-27T03:35:54.977Z,2.50
2018-09-27T03:38:22.571Z,2.30
2018-09-27T03:40:50.197Z,2.10
2018-09-27T03:43:17.790Z,2.00
2018-09-27T03:45:45.383Z,1.77
2018-09-27T03:48:12.963Z,2.03
2018-09-27T03:50:41.087Z,1.87
2018-09-27T03:53:08.701Z,2.40
2018-09-27T03:55:36.253Z,2.30
2018-09-27T03:58:03.895Z,2.20
2018-09-27T04:00:31.477Z,2.00
2018-09-27T04:02:59.092Z,2.67
2018-09-27T04:05:26.725Z,2.73
2018-09-27T04:07:54.409Z,2.60
2018-09-27T04:10:22.020Z,2.30
2018-09-27T04:12:49.610Z,2.20
2018-09-27T04:15:17.265Z,2.00
2018-09-27T04:17:44.861Z,2.33
2018-09-27T04:20:12.764Z,2.20
2018-09-27T04:22:40.367Z,2.07
2018-09-27T04:25:08.028Z,2.00
2018-09-27T04:27:35.642Z,2.07
2018-09-27T04:30:03.480Z,1.83
2018-09-27T04:32:31.143Z,2.17
2018-09-27T04:34:58.776Z,2.30
2018-09-27T04:37:26.330Z,2.43
2018-09-27T04:39:53.969Z,2.20
2018-09-27T04:42:21.561Z,2.23
2018-09-27T04:44:49.261Z,2.50
2018-09-27T04:47:16.865Z,2.80
2018-09-27T04:49:44.440Z,2.80
2018-09-27T04:52:12.078Z,2.53
2018-09-27T04:54:39.717Z,2.30
2018-09-27T04:57:07.456Z,1.90
2018-09-27T04:59:35.051Z,2.10
2018-09-27T05:02:02.726Z,2.10
2018-09-27T05:04:30.395Z,1.90
2018-09-27T05:06:58.000Z,1.87
2018-09-27T05:09:25.605Z,2.00
2018-09-27T05:11:53.252Z,1.90
2018-09-27T05:14:20.885Z,2.33
2018-09-27T05:16:48.559Z,2.33
2018-09-27T05:19:16.210Z,2.40
2018-09-27T05:21:43.907Z,2.20
2018-09-27T05:24:11.504Z,2.20
2018-09-27T05:26:39.155Z,2.23
2018-09-27T05:29:06.805Z,2.10
2018-09-27T05:31:34.473Z,3.10
2018-09-27T05:34:02.131Z,2.87
2018-09-27T05:36:29.812Z,2.90
2018-09-27T05:38:57.484Z,3.30
2018-09-27T05:41:25.205Z,3.00
2018-09-27T05:43:52.849Z,2.73
2018-09-27T05:46:20.550Z,2.90
2018-09-27T05:48:48.235Z,3.50
2018-09-27T05:51:15.888Z,3.00
2018-09-27T05:53:43.551Z,2.93
2018-09-27T05:56:11.248Z,2.60
2018-09-27T05:58:38.956Z,2.60
2018-09-27T06:01:06.718Z,3.00
2018-09-27T06:03:34.360Z,3.47
2018-09-27T06:06:02.001Z,2.97
2018-09-27T06:08:29.716Z,3.23
2018-09-27T06:10:57.380Z,5.57
2018-09-27T06:13:25.041Z,8.20
2018-09-27T06:15:52.668Z,16.67
2018-09-27T06:18:20.300Z,14.97
2018-09-27T06:20:47.924Z,13.40
2018-09-27T06:23:15.670Z,10.80
2018-09-27T06:25:43.512Z,9.07
2018-09-27T06:28:11.148Z,8.83
2018-09-27T06:30:38.791Z,9.70
2018-09-27T06:33:06.449Z,8.60
2018-09-27T06:35:34.199Z,7.40
2018-09-27T06:38:01.824Z,6.80
2018-09-27T06:40:29.461Z,5.73
2018-09-27T06:42:57.149Z,5.17
2018-09-27T06:45:24.754Z,4.23
2018-09-27T06:47:52.670Z,4.00
2018-09-27T06:50:20.312Z,3.73
2018-09-27T06:52:48.184Z,3.20
2018-09-27T06:55:15.987Z,3.50
2018-09-27T06:57:43.549Z,2.90
2018-09-27T07:00:11.204Z,3.07
2018-09-27T07:02:38.909Z,3.17
2018-09-27T07:05:06.668Z,3.07
2018-09-27T07:07:34.382Z,4.03
2018-09-27T07:10:02.053Z,3.63
2018-09-27T07:12:29.865Z,3.30
2018-09-27T07:14:57.463Z,3.30
2018-09-27T07:17:25.087Z,3.30
2018-09-27T07:19:52.712Z,3.17
2018-09-27T07:22:20.363Z,2.40
2018-09-27T07:24:48.007Z,2.60
2018-09-27T07:27:15.672Z,2.67
2018-09-27T07:29:43.303Z,2.33
2018-09-27T07:32:10.967Z,2.10
2018-09-27T07:34:38.620Z,2.17
2018-09-27T07:37:06.367Z,2.10
2018-09-27T07:39:34.101Z,2.30
2018-09-27T07:42:01.707Z,2.20
2018-09-27T07:44:29.427Z,2.33
2018-09-27T07:46:57.032Z,2.00
2018-09-27T07:49:24.722Z,2.40
2018-09-27T07:51:52.329Z,2.07
2018-09-27T07:54:19.964Z,2.60
2018-09-27T07:56:48.108Z,3.20
2018-09-27T07:59:15.784Z,2.50
2018-09-27T08:01:43.441Z,2.33
2018-09-27T08:04:11.152Z,1.87
2018-09-27T08:06:38.753Z,1.90
2018-09-27T08:09:07.407Z,2.20
2018-09-27T08:11:35.395Z,2.77
2018-09-27T08:14:02.975Z,2.70
2018-09-27T08:16:30.671Z,2.60
2018-09-27T08:18:58.320Z,3.70
2018-09-27T08:21:25.980Z,2.90
2018-09-27T08:23:53.646Z,3.02
2018-09-27T08:26:21.301Z,2.87
2018-09-27T08:28:48.932Z,2.70
2018-09-27T08:31:16.670Z,2.15
2018-09-27T08:33:44.311Z,2.10
2018-09-27T08:36:11.960Z,2.08
2018-09-27T08:38:39.635Z,3.90
2018-09-27T08:41:07.261Z,3.90
2018-09-27T08:43:34.893Z,3.57
2018-09-27T08:46:02.550Z,2.95
2018-09-27T08:48:30.245Z,2.80
2018-09-27T08:50:58.241Z,4.40
2018-09-27T08:53:25.901Z,4.40
2018-09-27T08:55:53.572Z,4.15
2018-09-27T08:58:21.534Z,3.52
2018-09-27T09:00:49.159Z,3.45
2018-09-27T09:03:16.855Z,3.58
2018-09-27T09:05:44.620Z,2.75
2018-09-27T09:08:12.728Z,3.10
2018-09-27T09:10:40.360Z,4.03
2018-09-27T09:13:08.278Z,3.17
2018-09-27T09:15:35.899Z,3.77
2018-09-27T09:18:03.577Z,3.60
2018-09-27T09:20:31.264Z,2.42
2018-09-27T09:22:58.895Z,2.25
2018-09-27T09:25:26.728Z,2.00
2018-09-27T09:27:54.596Z,2.77
2018-09-27T09:30:22.240Z,2.08
2018-09-27T09:32:49.862Z,1.90
2018-09-27T09:35:17.684Z,2.20
2018-09-27T09:37:45.391Z,2.37
2018-09-27T09:40:13.057Z,2.30
2018-09-27T09:42:40.679Z,1.80
2018-09-27T09:45:08.381Z,1.80
2018-09-27T09:47:36.007Z,1.70
2018-09-27T09:50:03.983Z,2.27
2018-09-27T09:52:31.610Z,1.70
2018-09-27T09:54:59.347Z,2.30
2018-09-27T09:57:27.016Z,1.80
2018-09-27T09:59:54.665Z,2.37
2018-09-27T10:02:22.364Z,2.20
2018-09-27T10:04:50.298Z,2.40
2018-09-27T10:07:17.941Z,2.33
2018-09-27T10:09:45.855Z,2.65
2018-09-27T10:12:13.480Z,2.80
2018-09-27T10:14:41.124Z,2.40
2018-09-27T10:17:08.783Z,2.27
2018-09-27T10:19:36.516Z,1.70
2018-09-27T10:22:04.214Z,1.70
2018-09-27T10:24:32.191Z,1.87
2018-09-27T10:26:59.820Z,2.27
2018-09-27T10:29:27.473Z,2.15
2018-09-27T10:31:55.099Z,2.10
2018-09-27T10:34:23.224Z,1.90
2018-09-27T10:36:50.835Z,1.80
2018-09-27T10:39:19.956Z,2.30
2018-09-27T10:41:47.768Z,2.25
2018-09-27T10:44:15.412Z,2.02
2018-09-27T10:46:42.972Z,2.00
2018-09-27T10:49:10.567Z,1.75
2018-09-27T10:51:38.160Z,1.35
2018-09-27T10:54:05.880Z,1.50
2018-09-27T10:56:33.484Z,1.10
2018-09-27T10:59:01.120Z,1.85
2018-09-27T11:01:28.700Z,1.98
2018-09-27T11:03:56.312Z,1.92
2018-09-27T11:06:24.153Z,1.72
2018-09-27T11:08:51.715Z,1.87
2018-09-27T11:11:19.319Z,2.10
2018-09-27T11:13:46.909Z,1.80
2018-09-27T11:16:14.491Z,1.30
2018-09-27T11:18:42.100Z,1.67
2018-09-27T11:21:09.680Z,1.90
2018-09-27T11:23:37.256Z,1.37
2018-09-27T11:26:04.876Z,1.40
2018-09-27T11:28:38.173Z,1.67
2018-09-27T11:31:11.420Z,1.80
2018-09-27T11:33:38.984Z,1.90
2018-09-27T11:36:06.692Z,1.50
2018-09-27T11:38:35.548Z,1.52
2018-09-27T11:41:03.148Z,1.27
2018-09-27T11:43:30.926Z,1.40
2018-09-27T11:45:58.554Z,1.40
2018-09-27T11:48:26.157Z,1.25
2018-09-27T11:50:53.738Z,1.05
2018-09-27T11:53:21.320Z,1.70
2018-09-27T11:55:49.193Z,1.30
2018-09-27T11:58:16.952Z,1.05
2018-09-27T12:00:44.885Z,1.30
2018-09-27T12:03:12.440Z,1.22
2018-09-27T12:05:40.005Z,1.20
2018-09-27T12:08:07.667Z,1.10
2018-09-27T12:10:35.243Z,1.17
2018-09-27T12:13:03.033Z,1.10
2018-09-27T12:15:30.718Z,1.42
2018-09-27T12:17:58.616Z,1.37
2018-09-27T12:20:26.188Z,1.50
2018-09-27T12:22:53.840Z,1.42
2018-09-27T12:25:21.445Z,1.20
2018-09-27T12:27:49.020Z,1.45
2018-09-27T12:30:16.615Z,1.02
2018-09-27T12:32:44.157Z,1.30
2018-09-27T12:35:11.713Z,1.30
2018-09-27T12:37:39.335Z,1.10
2018-09-27T12:40:06.953Z,1.22
2018-09-27T12:42:34.686Z,1.52
2018-09-27T12:45:02.323Z,1.07
2018-09-27T12:47:29.836Z,1.20
2018-09-27T12:49:57.467Z,1.30
2018-09-27T12:52:25.296Z,1.17
2018-09-27T12:54:52.810Z,1.17
2018-09-27T12:57:20.387Z,1.40
2018-09-27T12:59:48.016Z,1.90
2018-09-27T13:02:15.758Z,1.52
2018-09-27T13:04:43.298Z,1.62
2018-09-27T13:07:10.999Z,2.00
2018-09-27T13:09:38.675Z,1.37
2018-09-27T13:12:06.248Z,1.47
2018-09-27T13:14:33.895Z,1.40
2018-09-27T13:17:01.528Z,1.40
2018-09-27T13:19:29.191Z,1.70
2018-09-27T13:21:56.744Z,1.67
2018-09-27T13:24:24.501Z,1.60
2018-09-27T13:26:52.101Z,1.70
2018-09-27T13:29:19.875Z,1.57
2018-09-27T13:31:47.491Z,1.37
2018-09-27T13:34:15.040Z,1.47
2018-09-27T13:36:42.651Z,1.00
2018-09-27T13:39:10.593Z,1.10
2018-09-27T13:41:39.361Z,1.47
2018-09-27T13:44:07.113Z,1.00
2018-09-27T13:46:35.493Z,1.35
2018-09-27T13:49:03.143Z,1.20
2018-09-27T13:51:30.727Z,1.32
2018-09-27T13:53:58.363Z,2.17
2018-09-27T13:56:25.941Z,2.45
2018-09-27T13:58:53.544Z,1.95
2018-09-27T14:01:21.285Z,2.30
2018-09-27T14:03:48.896Z,1.90
2018-09-27T14:06:16.466Z,2.30
2018-09-27T14:08:44.061Z,2.15
2018-09-27T14:11:11.688Z,1.92
2018-09-27T14:13:39.317Z,1.82
2018-09-27T14:16:06.958Z,2.20
2018-09-27T14:18:34.581Z,2.00
2018-09-27T14:21:02.176Z,2.00
2018-09-27T14:23:29.866Z,2.00
2018-09-27T14:25:57.471Z,2.40
2018-09-27T14:28:25.093Z,2.00
2018-09-27T14:30:52.992Z,2.30
2018-09-27T14:33:20.644Z,1.95
2018-09-27T14:35:48.254Z,2.27
2018-09-27T14:38:15.885Z,2.15
2018-09-27T14:40:43.532Z,2.02
2018-09-27T14:43:11.092Z,3.00
2018-09-27T14:45:38.717Z,2.70
2018-09-27T14:48:06.339Z,2.72
2018-09-27T14:50:33.936Z,2.35
2018-09-27T14:53:01.505Z,2.80
2018-09-27T14:55:29.136Z,3.00
2018-09-27T14:57:56.732Z,2.83
2018-09-27T15:00:24.305Z,2.50
2018-09-27T15:02:51.926Z,2.50
2018-09-27T15:05:19.503Z,2.60
2018-09-27T15:07:47.114Z,2.60
2018-09-27T15:10:14.765Z,2.90
2018-09-27T15:12:42.490Z,2.60
2018-09-27T15:15:10.038Z,2.62
2018-09-27T15:17:38.114Z,2.27
2018-09-27T15:20:05.889Z,2.20
2018-09-27T15:22:33.607Z,2.22
2018-09-27T15:25:01.165Z,2.35
2018-09-27T15:27:28.762Z,2.72
2018-09-27T15:29:56.339Z,2.55
2018-09-27T15:32:24.173Z,2.60
2018-09-27T15:34:51.892Z,2.45
2018-09-27T15:37:19.449Z,2.10
2018-09-27T15:39:47.042Z,2.10
2018-09-27T15:42:14.625Z,2.50
2018-09-27T15:44:42.191Z,3.35
2018-09-27T15:47:09.811Z,3.20
2018-09-27T15:49:37.428Z,3.20
2018-09-27T15:52:05.149Z,2.60
2018-09-27T15:54:32.745Z,2.72
2018-09-27T15:57:00.377Z,2.72
2018-09-27T15:59:27.988Z,2.60
2018-09-27T16:01:55.779Z,2.83
2018-09-27T16:04:23.408Z,3.37
2018-09-27T16:06:51.010Z,2.90
2018-09-27T16:09:18.623Z,2.47
2018-09-27T16:11:46.229Z,2.65
2018-09-27T16:14:13.810Z,2.27
2018-09-27T16:16:41.481Z,2.20
2018-09-27T16:19:09.212Z,2.45
2018-09-27T16:21:36.829Z,2.30
2018-09-27T16:24:04.439Z,3.20
2018-09-27T16:26:32.085Z,2.60
2018-09-27T16:29:00.017Z,2.42
2018-09-27T16:31:27.584Z,1.85
2018-09-27T16:33:55.177Z,1.87
2018-09-27T16:36:22.749Z,1.80
2018-09-27T16:38:50.369Z,1.80
2018-09-27T16:41:17.984Z,1.75
2018-09-27T16:43:45.664Z,1.60
2018-09-27T16:46:13.263Z,1.90
2018-09-27T16:48:40.880Z,1.80
2018-09-27T16:51:08.506Z,2.00
2018-09-27T16:53:36.168Z,2.42
2018-09-27T16:56:03.782Z,2.80
2018-09-27T16:58:31.490Z,2.60
2018-09-27T17:00:59.056Z,3.10
2018-09-27T17:03:26.618Z,2.67
2018-09-27T17:05:54.218Z,3.50
2018-09-27T17:08:21.812Z,3.60
2018-09-27T17:10:49.376Z,3.60
2018-09-27T17:13:16.991Z,3.50
2018-09-27T17:15:44.579Z,3.17
2018-09-27T17:18:12.469Z,3.05
2018-09-27T17:20:40.107Z,3.12
2018-09-27T17:23:07.665Z,3.42
2018-09-27T17:25:35.293Z,2.80
2018-09-27T17:28:02.908Z,3.27
2018-09-27T17:30:30.468Z,2.72
2018-09-27T17:32:58.098Z,2.47
2018-09-27T17:35:25.682Z,2.40
2018-09-27T17:37:53.278Z,2.45
2018-09-27T17:40:21.218Z,2.40
2018-09-27T17:42:48.886Z,2.00
2018-09-27T17:45:16.835Z,2.12
2018-09-27T17:47:44.444Z,2.33
2018-09-27T17:50:12.135Z,1.82
2018-09-27T17:52:39.786Z,1.72
2018-09-27T17:55:07.899Z,2.10
2018-09-27T17:57:36.544Z,2.30
2018-09-27T18:00:04.314Z,2.02
2018-09-27T18:02:31.958Z,1.90
2018-09-27T18:04:59.549Z,2.00
2018-09-27T18:07:27.203Z,2.30
2018-09-27T18:09:54.820Z,2.37
2018-09-27T18:12:22.451Z,2.10
2018-09-27T18:14:50.097Z,2.30
2018-09-27T18:17:17.878Z,2.27
2018-09-27T18:19:45.507Z,2.40
2018-09-27T18:22:13.067Z,2.55
2018-09-27T18:24:40.675Z,2.17
2018-09-27T18:27:08.283Z,2.20
2018-09-27T18:29:35.926Z,2.00
2018-09-27T18:32:03.520Z,2.10
2018-09-27T18:34:31.202Z,2.10
2018-09-27T18:36:58.792Z,1.85
2018-09-27T18:39:26.430Z,2.10
2018-09-27T18:41:54.026Z,1.95
2018-09-27T18:44:21.611Z,2.00
2018-09-27T18:46:49.206Z,2.22
2018-09-27T18:49:16.872Z,2.02
2018-09-27T18:51:44.477Z,2.40
2018-09-27T18:54:12.048Z,2.30
2018-09-27T18:56:39.609Z,2.33
2018-09-27T18:59:08.300Z,2.40
2018-09-27T19:01:35.854Z,2.50
2018-09-27T19:04:03.488Z,2.20
2018-09-27T19:06:31.075Z,1.97
2018-09-27T19:08:58.799Z,1.90
2018-09-27T19:11:26.398Z,2.27
2018-09-27T19:13:54.294Z,2.30
2018-09-27T19:16:21.885Z,2.22
2018-09-27T19:18:49.456Z,2.25
2018-09-27T19:21:17.030Z,1.90
2018-09-27T19:23:44.663Z,1.90
2018-09-27T19:26:12.242Z,2.10
2018-09-27T19:28:39.848Z,1.97
2018-09-27T19:31:07.472Z,2.00
2018-09-27T19:33:35.067Z,2.15
2018-09-27T19:36:02.673Z,2.00
2018-09-27T19:38:30.338Z,2.00
2018-09-27T19:40:58.172Z,2.05
2018-09-27T19:43:25.813Z,2.40
2018-09-27T19:45:53.412Z,2.30
2018-09-27T19:48:21.033Z,2.10
2018-09-27T19:50:48.636Z,2.30
2018-09-27T19:53:16.232Z,2.73
2018-09-27T19:55:43.844Z,2.40
2018-09-27T19:58:11.510Z,2.53
2018-09-27T20:00:39.113Z,2.67
2018-09-27T20:03:06.696Z,2.40
2018-09-27T20:05:34.287Z,2.27
2018-09-27T20:08:01.872Z,2.40
2018-09-27T20:10:29.563Z,2.30
2018-09-27T20:12:57.166Z,2.10
2018-09-27T20:15:24.760Z,2.60
2018-09-27T20:17:52.899Z,2.40
2018-09-27T20:20:20.503Z,2.90
2018-09-27T20:22:48.348Z,2.83
2018-09-27T20:25:15.960Z,2.60
2018-09-27T20:27:43.514Z,2.80
2018-09-27T20:30:11.118Z,2.50
2018-09-27T20:32:38.661Z,2.40
2018-09-27T20:35:06.275Z,2.30
2018-09-27T20:37:33.864Z,2.20
2018-09-27T20:40:01.490Z,2.30
2018-09-27T20:42:29.336Z,2.43
2018-09-27T20:44:56.993Z,2.30
2018-09-27T20:47:25.060Z,2.40
2018-09-27T20:49:52.689Z,2.10
2018-09-27T20:52:20.322Z,2.20
2018-09-27T20:54:47.960Z,2.10
2018-09-27T20:57:18.842Z,2.30
2018-09-27T20:59:46.493Z,2.33
2018-09-27T21:02:14.129Z,2.50
2018-09-27T21:04:41.749Z,2.40
2018-09-27T21:07:09.828Z,2.43
2018-09-27T21:09:37.410Z,2.27
2018-09-27T21:12:05.135Z,2.00
2018-09-27T21:14:32.825Z,2.03
2018-09-27T21:17:00.698Z,2.37
2018-09-27T21:19:28.365Z,2.20
2018-09-27T21:21:56.021Z,2.60
2018-09-27T21:24:23.628Z,2.50
2018-09-27T21:26:51.268Z,2.60
2018-09-27T21:29:18.853Z,2.70
2018-09-27T21:31:46.500Z,2.53
2018-09-27T21:34:14.144Z,2.30
2018-09-27T21:36:41.821Z,2.17
2018-09-27T21:39:09.449Z,2.07
2018-09-27T21:41:37.116Z,2.20
2018-09-27T21:44:04.813Z,2.20
2018-09-27T21:46:32.457Z,2.17
2018-09-27T21:49:00.090Z,2.33
2018-09-27T21:51:27.713Z,2.77
2018-09-27T21:53:55.288Z,2.20
2018-09-27T21:56:23.120Z,2.77
2018-09-27T21:58:50.777Z,3.10
2018-09-27T22:01:18.652Z,3.60
2018-09-27T22:03:46.351Z,3.70
2018-09-27T22:06:13.949Z,3.63
2018-09-27T22:08:41.657Z,3.37
2018-09-27T22:11:09.384Z,3.27
2018-09-27T22:13:37.044Z,2.97
2018-09-27T22:16:04.716Z,2.63
2018-09-27T22:18:32.346Z,2.90
2018-09-27T22:20:59.990Z,2.70
2018-09-27T22:23:27.805Z,2.60
2018-09-27T22:25:55.644Z,2.90
2018-09-27T22:28:23.267Z,3.40
2018-09-27T22:30:50.921Z,3.40
2018-09-27T22:33:18.553Z,2.60
2018-09-27T22:35:46.193Z,2.60
2018-09-27T22:38:13.795Z,2.60
2018-09-27T22:40:41.653Z,2.90
2018-09-27T22:43:09.340Z,2.90
2018-09-27T22:45:36.942Z,2.90
2018-09-27T22:48:04.609Z,2.90
2018-09-27T22:50:32.221Z,2.87
2018-09-27T22:52:59.856Z,2.63
2018-09-27T22:55:27.519Z,2.53
2018-09-27T22:57:55.876Z,2.87
2018-09-27T23:00:23.488Z,2.60
2018-09-27T23:02:51.441Z,3.37
2018-09-27T23:05:19.107Z,2.63
2018-09-27T23:07:46.765Z,2.70
2018-09-27T23:10:14.406Z,2.47
2018-09-27T23:12:42.049Z,3.10
2018-09-27T23:15:09.638Z,3.60
2018-09-27T23:17:37.277Z,3.40
2018-09-27T23:20:06.093Z,2.70
2018-09-27T23:22:33.716Z,2.73
2018-09-27T23:25:01.364Z,2.40
2018-09-27T23:27:29.012Z,2.70
2018-09-27T23:29:56.632Z,2.30
2018-09-27T23:32:24.601Z,2.30
2018-09-27T23:34:52.190Z,2.30
2018-09-27T23:37:19.812Z,2.30
2018-09-27T23:39:47.423Z,2.97
2018-09-27T23:42:15.160Z,2.70
2018-09-27T23:44:42.793Z,2.70
2018-09-27T23:47:10.503Z,3.20
2018-09-27T23:49:38.152Z,2.70
2018-09-27T23:52:05.852Z,3.60
2018-09-27T23:54:33.630Z,3.30
2018-09-27T23:57:01.233Z,3.33
2018-09-27T23:59:28.907Z,3.53
